createdAt,value
2022-07-31T00:03:14.164Z,2.63
2022-07-31T00:08:18.834Z,2.40
2022-07-31T00:13:57.798Z,2.22
2022-07-31T00:18:46.285Z,1.90
2022-07-31T00:23:50.664Z,2.42
2022-07-31T00:28:53.944Z,1.60
2022-07-31T00:33:56.910Z,2.10
2022-07-31T00:39:01.266Z,2.40
2022-07-31T00:44:04.408Z,2.20
2022-07-31T00:49:09.268Z,2.22
2022-07-31T00:54:22.648Z,2.50
2022-07-31T00:59:26.590Z,1.80
2022-07-31T01:04:31.228Z,2.15
2022-07-31T01:09:35.900Z,2.35
2022-07-31T01:14:42.971Z,2.30
2022-07-31T01:19:47.329Z,2.60
2022-07-31T01:25:04.979Z,2.30
2022-07-31T01:30:14.412Z,2.72
2022-07-31T01:35:21.878Z,2.70
2022-07-31T01:40:31.805Z,2.50
2022-07-31T01:45:40.007Z,3.15
2022-07-31T01:50:44.987Z,2.92
2022-07-31T01:56:02.671Z,2.90
2022-07-31T02:01:16.463Z,2.85
2022-07-31T02:06:21.955Z,3.60
2022-07-31T02:11:25.638Z,3.70
2022-07-31T02:16:30.840Z,3.88
2022-07-31T02:21:41.521Z,4.10
2022-07-31T02:26:45.374Z,4.15
2022-07-31T02:32:02.897Z,4.18
2022-07-31T02:37:09.264Z,4.65
2022-07-31T02:42:12.751Z,4.75
2022-07-31T02:47:18.269Z,3.97
2022-07-31T02:52:22.077Z,4.65
2022-07-31T02:57:25.728Z,5.10
2022-07-31T03:02:36.835Z,4.40
2022-07-31T03:07:41.741Z,4.93
2022-07-31T03:12:46.763Z,5.00
2022-07-31T03:17:51.663Z,6.25
2022-07-31T03:23:03.150Z,5.70
2022-07-31T03:28:07.734Z,5.72
2022-07-31T03:33:12.384Z,5.28
2022-07-31T03:38:34.964Z,5.57
2022-07-31T03:43:43.676Z,6.38
2022-07-31T03:48:53.390Z,6.22
2022-07-31T03:53:59.515Z,7.50
2022-07-31T03:59:27.396Z,7.13
2022-07-31T04:04:34.904Z,7.43
2022-07-31T04:09:39.938Z,8.02
2022-07-31T04:14:44.030Z,9.52
2022-07-31T04:19:49.910Z,8.63
2022-07-31T04:24:53.266Z,8.50
2022-07-31T04:30:03.081Z,8.32
2022-07-31T04:35:10.036Z,8.52
2022-07-31T04:40:13.746Z,7.82
2022-07-31T04:45:18.008Z,8.60
2022-07-31T04:50:22.514Z,7.50
2022-07-31T04:55:33.861Z,7.68
2022-07-31T05:00:37.047Z,8.10
2022-07-31T05:05:45.358Z,7.85
2022-07-31T05:11:06.509Z,7.65
2022-07-31T05:16:12.917Z,6.63
2022-07-31T05:21:18.270Z,7.95
2022-07-31T05:26:32.611Z,7.15
2022-07-31T05:31:35.695Z,8.07
2022-07-31T05:36:40.214Z,6.88
2022-07-31T05:41:44.695Z,7.78
2022-07-31T05:51:55.154Z,8.02
2022-07-31T05:56:58.141Z,7.32
2022-07-31T06:02:09.174Z,8.63
2022-07-31T06:07:33.857Z,9.23
2022-07-31T06:12:37.733Z,8.43
2022-07-31T06:17:44.397Z,9.48
2022-07-31T06:23:14.564Z,9.32
2022-07-31T06:28:49.288Z,10.90
2022-07-31T06:33:54.340Z,13.38
2022-07-31T06:39:02.597Z,11.45
2022-07-31T06:44:05.933Z,12.40
2022-07-31T06:49:27.509Z,12.95
2022-07-31T06:54:32.320Z,12.90
2022-07-31T06:59:40.493Z,14.23
2022-07-31T07:05:05.093Z,13.80
2022-07-31T07:10:09.708Z,13.85
2022-07-31T07:15:39.013Z,15.23
2022-07-31T07:20:42.382Z,14.80
2022-07-31T07:25:46.825Z,14.45
2022-07-31T07:30:51.636Z,14.80
2022-07-31T07:35:56.169Z,15.18
2022-07-31T07:41:01.074Z,15.40
2022-07-31T07:46:04.269Z,14.30
2022-07-31T07:51:07.906Z,13.77
2022-07-31T07:56:24.611Z,13.30
2022-07-31T08:01:48.131Z,12.93
2022-07-31T08:06:56.168Z,12.25
2022-07-31T08:12:05.768Z,13.40
2022-07-31T08:17:37.891Z,12.07
2022-07-31T08:22:41.883Z,12.68
2022-07-31T08:27:48.004Z,12.65
2022-07-31T08:32:52.087Z,12.68
2022-07-31T08:38:03.288Z,12.48
2022-07-31T08:44:00.168Z,16.77
2022-07-31T08:48:42.666Z,17.52
2022-07-31T08:53:46.703Z,17.15
2022-07-31T08:58:57.086Z,17.60
2022-07-31T09:04:00.488Z,14.95
2022-07-31T09:09:04.678Z,15.13
2022-07-31T09:14:10.735Z,13.23
2022-07-31T09:19:51.377Z,14.45
2022-07-31T09:24:53.459Z,13.73
2022-07-31T09:29:58.544Z,12.48
2022-07-31T09:35:21.804Z,10.50
2022-07-31T09:40:39.939Z,9.73
2022-07-31T09:46:43.108Z,9.88
2022-07-31T09:51:49.182Z,9.30
2022-07-31T09:56:56.681Z,8.93
2022-07-31T10:02:03.160Z,8.93
2022-07-31T10:07:07.207Z,9.85
2022-07-31T10:12:17.109Z,10.35
2022-07-31T10:17:26.303Z,9.00
2022-07-31T10:22:49.164Z,10.68
2022-07-31T10:27:58.228Z,13.15
2022-07-31T10:33:17.542Z,12.15
2022-07-31T10:39:02.919Z,11.77
2022-07-31T10:44:38.516Z,10.00
2022-07-31T10:50:21.887Z,7.47
2022-07-31T10:55:39.795Z,6.70
2022-07-31T11:01:08.854Z,5.97
2022-07-31T11:06:15.307Z,5.90
2022-07-31T11:11:41.626Z,6.47
2022-07-31T11:18:22.742Z,5.97
2022-07-31T11:23:03.324Z,6.20
2022-07-31T11:28:16.073Z,6.28
2022-07-31T11:33:30.453Z,5.00
2022-07-31T11:38:49.758Z,5.03
2022-07-31T11:43:54.435Z,4.97
2022-07-31T11:48:58.064Z,5.47
2022-07-31T11:54:02.457Z,5.47
2022-07-31T11:59:05.782Z,4.97
2022-07-31T12:04:09.374Z,5.15
2022-07-31T12:10:02.709Z,5.32
2022-07-31T12:14:38.912Z,5.10
2022-07-31T12:19:42.528Z,4.20
2022-07-31T12:24:48.562Z,3.97
2022-07-31T12:29:51.704Z,4.72
2022-07-31T12:35:03.775Z,4.18
2022-07-31T12:40:09.809Z,3.83
2022-07-31T12:45:19.791Z,3.63
2022-07-31T12:50:24.643Z,3.92
2022-07-31T12:55:30.762Z,3.70
2022-07-31T13:00:38.126Z,3.55
2022-07-31T13:05:43.010Z,3.40
2022-07-31T13:10:48.449Z,3.80
2022-07-31T13:15:52.091Z,3.50
2022-07-31T13:20:55.126Z,3.08
2022-07-31T13:26:00.806Z,3.10
2022-07-31T13:31:04.167Z,3.60
2022-07-31T13:36:07.403Z,3.22
2022-07-31T13:41:28.445Z,3.58
2022-07-31T13:46:32.316Z,3.83
2022-07-31T13:51:35.448Z,4.30
2022-07-31T13:56:43.515Z,4.03
2022-07-31T14:02:04.329Z,3.33
2022-07-31T14:07:09.326Z,5.20
2022-07-31T14:12:13.924Z,5.00
2022-07-31T14:17:18.409Z,6.05
2022-07-31T14:22:21.539Z,4.40
2022-07-31T14:27:26.034Z,4.43
2022-07-31T14:32:30.853Z,3.30
2022-07-31T14:37:34.041Z,3.10
2022-07-31T14:42:39.269Z,3.00
2022-07-31T14:47:42.458Z,3.45
2022-07-31T14:52:45.526Z,3.03
2022-07-31T14:57:51.813Z,3.70
2022-07-31T15:02:54.812Z,3.95
2022-07-31T15:07:58.117Z,4.85
2022-07-31T15:13:02.748Z,6.28
2022-07-31T15:18:06.287Z,5.38
2022-07-31T15:23:09.488Z,5.53
2022-07-31T15:28:14.102Z,5.30
2022-07-31T15:33:17.227Z,5.97
2022-07-31T15:38:20.352Z,6.53
2022-07-31T15:43:24.871Z,6.13
2022-07-31T15:48:28.173Z,6.00
2022-07-31T15:53:39.042Z,5.93
2022-07-31T15:58:43.849Z,5.53
2022-07-31T16:03:51.167Z,4.85
2022-07-31T16:08:56.551Z,4.82
2022-07-31T16:14:00.944Z,5.03
2022-07-31T16:19:04.221Z,4.40
2022-07-31T16:24:08.510Z,3.55
2022-07-31T16:29:17.491Z,4.57
2022-07-31T16:34:21.011Z,4.22
2022-07-31T16:39:24.008Z,4.18
2022-07-31T16:44:28.434Z,4.07
2022-07-31T16:49:36.338Z,4.40
2022-07-31T16:54:40.345Z,3.88
2022-07-31T16:59:56.926Z,3.85
2022-07-31T17:05:01.620Z,4.15
2022-07-31T17:10:05.176Z,3.45
2022-07-31T17:15:11.678Z,3.58
2022-07-31T17:20:15.171Z,3.20
2022-07-31T17:25:18.347Z,4.25
2022-07-31T17:30:22.869Z,3.78
2022-07-31T17:35:26.154Z,4.45
2022-07-31T17:40:42.919Z,4.47
2022-07-31T17:45:59.718Z,4.20
2022-07-31T17:51:10.381Z,4.15
2022-07-31T17:56:13.592Z,3.90
2022-07-31T18:01:18.168Z,3.65
2022-07-31T18:06:21.468Z,4.20
2022-07-31T18:11:26.232Z,4.35
2022-07-31T18:16:30.983Z,4.45
2022-07-31T18:21:34.172Z,4.20
2022-07-31T18:26:37.518Z,4.22
2022-07-31T18:31:42.036Z,4.22
2022-07-31T18:36:45.281Z,4.80
2022-07-31T18:41:49.171Z,4.75
2022-07-31T18:46:53.912Z,3.80
2022-07-31T18:51:56.977Z,4.88
2022-07-31T18:56:59.947Z,4.03
2022-07-31T19:02:04.771Z,5.22
2022-07-31T19:07:09.147Z,4.47
2022-07-31T19:12:13.976Z,4.13
2022-07-31T19:17:21.381Z,4.30
2022-07-31T19:22:24.797Z,5.13
2022-07-31T19:27:47.811Z,5.30
2022-07-31T19:32:52.204Z,4.88
2022-07-31T19:37:59.475Z,4.75
2022-07-31T19:43:02.730Z,4.75
2022-07-31T19:48:07.690Z,4.45
2022-07-31T19:53:10.788Z,5.35
2022-07-31T19:58:13.757Z,4.72
2022-07-31T20:03:18.768Z,4.82
2022-07-31T20:08:22.380Z,6.65
2022-07-31T20:13:25.601Z,5.72
2022-07-31T20:18:30.766Z,5.63
2022-07-31T20:23:34.658Z,5.25
2022-07-31T20:28:40.265Z,6.25
2022-07-31T20:33:56.851Z,5.40
2022-07-31T20:39:01.209Z,6.57
2022-07-31T20:44:04.221Z,6.07
2022-07-31T20:49:08.946Z,6.07
2022-07-31T20:54:34.634Z,6.53
2022-07-31T20:59:37.860Z,6.82
2022-07-31T21:04:43.227Z,6.32
2022-07-31T21:09:46.673Z,6.30
2022-07-31T21:14:49.799Z,6.88
2022-07-31T21:19:54.316Z,7.70
2022-07-31T21:24:58.011Z,6.57
2022-07-31T21:30:02.422Z,7.18
2022-07-31T21:35:09.602Z,7.10
2022-07-31T21:40:14.437Z,7.50
2022-07-31T21:45:18.604Z,8.15
2022-07-31T21:50:29.021Z,8.75
2022-07-31T21:55:32.402Z,7.35
2022-07-31T22:00:35.556Z,7.22
2022-07-31T22:05:57.803Z,7.47
2022-07-31T22:11:01.528Z,7.85
2022-07-31T22:16:04.919Z,8.35
2022-07-31T22:21:10.007Z,7.43
2022-07-31T22:26:13.556Z,7.45
2022-07-31T22:31:17.056Z,7.38
2022-07-31T22:36:21.871Z,7.95
2022-07-31T22:41:25.017Z,8.50
2022-07-31T22:46:28.913Z,8.95
2022-07-31T22:51:38.888Z,7.80
2022-07-31T22:56:42.771Z,7.85
2022-07-31T23:01:45.998Z,7.68
2022-07-31T23:06:50.612Z,6.80
2022-07-31T23:11:54.004Z,6.47
2022-07-31T23:16:57.217Z,6.57
2022-07-31T23:22:02.289Z,6.53
2022-07-31T23:27:08.391Z,7.18
2022-07-31T23:32:11.490Z,7.00
2022-07-31T23:37:15.866Z,7.45
2022-07-31T23:42:36.499Z,7.30
2022-07-31T23:47:45.623Z,7.80
2022-07-31T23:52:51.058Z,6.68
2022-07-31T23:57:53.981Z,7.95
